createdAt,value
2018-07-02T00:00:36.072Z,97664.84
2018-07-02T00:03:08.655Z,97664.19
2018-07-02T00:05:49.557Z,97660.60
2018-07-02T00:08:19.280Z,97661.87
2018-07-02T00:10:49.079Z,97656.33
2018-07-02T00:13:18.791Z,97653.48
2018-07-02T00:15:48.592Z,97660.38
2018-07-02T00:18:18.406Z,97656.20
2018-07-02T00:20:48.263Z,97656.39
2018-07-02T00:23:18.048Z,97658.41
2018-07-02T00:25:47.875Z,97651.28
2018-07-02T00:28:17.615Z,97656.78
2018-07-02T00:30:47.428Z,97650.92
2018-07-02T00:33:17.385Z,97649.78
2018-07-02T00:38:22.404Z,97648.13
2018-07-02T00:40:52.175Z,97640.92
2018-07-02T00:43:22.215Z,97638.88
2018-07-02T00:45:51.999Z,97637.80
2018-07-02T00:48:21.750Z,97636.47
2018-07-02T00:53:26.910Z,97631.53
2018-07-02T00:55:56.730Z,97628.64
2018-07-02T00:58:26.571Z,97627.03
2018-07-02T01:00:57.589Z,97624.25
2018-07-02T01:03:27.607Z,97618.70
2018-07-02T01:05:57.431Z,97625.30
2018-07-02T01:08:27.353Z,97627.96
2018-07-02T01:10:57.328Z,97618.27
2018-07-02T01:13:27.214Z,97618.17
2018-07-02T01:15:58.846Z,97616.72
2018-07-02T01:18:28.615Z,97622.94
2018-07-02T01:23:33.706Z,97614.45
2018-07-02T01:26:03.699Z,97619.14
2018-07-02T01:28:33.788Z,97614.23
2018-07-02T01:31:03.663Z,97615.69
2018-07-02T01:33:37.729Z,97612.91
2018-07-02T01:36:07.548Z,97610.15
2018-07-02T01:38:37.446Z,97612.80
2018-07-02T01:44:00.265Z,97607.08
2018-07-02T01:46:30.224Z,97606.31
2018-07-02T01:49:00.573Z,97607.70
2018-07-02T01:51:30.391Z,97605.20
2018-07-02T01:54:00.359Z,97602.30
2018-07-02T01:56:30.271Z,97596.62
2018-07-02T02:01:35.117Z,97595.89
2018-07-02T02:04:04.901Z,97597.34
2018-07-02T02:06:34.785Z,97597.69
2018-07-02T02:09:06.622Z,97595.55
2018-07-02T02:11:36.554Z,97590.22
2018-07-02T02:14:06.444Z,97584.99
2018-07-02T02:16:36.733Z,97587.25
2018-07-02T02:19:07.087Z,97581.65
2018-07-02T02:21:37.802Z,97581.43
2018-07-02T02:24:07.680Z,97578.86
2018-07-02T02:26:37.414Z,97580.50
2018-07-02T02:29:07.213Z,97582.79
2018-07-02T02:31:37.267Z,97580.66
2018-07-02T02:34:07.103Z,97582.77
2018-07-02T02:36:36.844Z,97582.33
2018-07-02T02:39:07.899Z,97580.78
2018-07-02T02:41:38.659Z,97581.84
2018-07-02T02:44:18.145Z,97580.91
2018-07-02T02:46:47.988Z,97574.72
2018-07-02T02:51:54.079Z,97573.53
2018-07-02T02:54:23.944Z,97573.13
2018-07-02T02:56:53.925Z,97572.45
2018-07-02T02:59:23.749Z,97572.20
2018-07-02T03:01:53.594Z,97574.19
2018-07-02T03:04:23.455Z,97579.58
2018-07-02T03:06:53.383Z,97576.52
2018-07-02T03:09:23.366Z,97570.78
2018-07-02T03:11:53.228Z,97567.48
2018-07-02T03:14:23.070Z,97567.95
2018-07-02T03:16:53.424Z,97566.98
2018-07-02T03:19:23.165Z,97578.46
2018-07-02T03:21:56.508Z,97578.64
2018-07-02T03:24:26.281Z,97575.05
2018-07-02T03:26:56.132Z,97571.98
2018-07-02T03:29:25.923Z,97571.19
2018-07-02T03:31:55.729Z,97567.34
2018-07-02T03:34:25.534Z,97572.72
2018-07-02T03:36:55.273Z,97569.11
2018-07-02T03:39:25.155Z,97568.33
2018-07-02T03:41:58.331Z,97568.52
2018-07-02T03:44:37.903Z,97572.05
2018-07-02T03:47:07.724Z,97562.78
2018-07-02T03:49:38.165Z,97569.37
2018-07-02T03:52:08.497Z,97569.07
2018-07-02T03:54:38.310Z,97565.55
2018-07-02T03:57:09.518Z,97564.34
2018-07-02T03:59:39.315Z,97566.32
2018-07-02T04:02:09.079Z,97561.61
2018-07-02T04:04:39.305Z,97558.38
2018-07-02T04:07:09.329Z,97563.98
2018-07-02T04:12:40.237Z,97559.41
2018-07-02T04:17:45.691Z,97562.37
2018-07-02T04:20:15.796Z,97558.16
2018-07-02T04:22:45.673Z,97559.48
2018-07-02T04:25:15.537Z,97565.40
2018-07-02T04:30:20.791Z,97566.25
2018-07-02T04:32:51.537Z,97567.06
2018-07-02T04:35:21.623Z,97565.39
2018-07-02T04:37:51.594Z,97569.61
2018-07-02T04:42:57.007Z,97568.66
2018-07-02T04:45:26.840Z,97566.67
2018-07-02T04:47:56.680Z,97569.61
2018-07-02T04:50:26.449Z,97567.47
2018-07-02T04:52:56.239Z,97562.19
2018-07-02T04:55:26.022Z,97556.81
2018-07-02T04:57:56.025Z,97558.15
2018-07-02T05:00:25.788Z,97560.38
2018-07-02T05:02:55.657Z,97565.29
2018-07-02T05:05:25.397Z,97566.67
2018-07-02T05:10:41.424Z,97558.91
2018-07-02T05:13:11.231Z,97556.39
2018-07-02T05:15:41.117Z,97560.13
2018-07-02T05:18:10.849Z,97564.81
2018-07-02T05:20:52.998Z,97556.89
2018-07-02T05:23:22.829Z,97556.22
2018-07-02T05:25:52.666Z,97550.88
2018-07-02T05:28:22.552Z,97563.33
2018-07-02T05:30:52.261Z,97563.25
2018-07-02T05:33:22.038Z,97554.97
2018-07-02T05:35:51.832Z,97553.95
2018-07-02T05:38:21.619Z,97555.36
2018-07-02T05:40:51.513Z,97557.77
2018-07-02T05:43:21.473Z,97557.95
2018-07-02T05:45:51.409Z,97556.62
2018-07-02T05:48:21.183Z,97551.92
2018-07-02T05:50:50.990Z,97557.55
2018-07-02T05:53:20.674Z,97554.16
2018-07-02T05:55:50.630Z,97561.00
2018-07-02T05:58:20.958Z,97559.83
2018-07-02T06:00:50.779Z,97559.66
2018-07-02T06:03:20.500Z,97557.16
2018-07-02T06:05:50.286Z,97557.95
2018-07-02T06:08:20.143Z,97551.08
2018-07-02T06:10:49.862Z,97553.82
2018-07-02T06:13:19.723Z,97548.17
2018-07-02T06:15:49.473Z,97552.92
2018-07-02T06:18:19.416Z,97547.42
2018-07-02T06:20:49.462Z,97551.44
2018-07-02T06:23:19.452Z,97544.32
2018-07-02T06:25:49.344Z,97537.61
2018-07-02T06:28:19.162Z,97542.79
2018-07-02T06:30:49.137Z,97537.17
2018-07-02T06:33:19.110Z,97536.11
2018-07-02T06:35:49.083Z,97537.95
2018-07-02T06:38:19.189Z,97533.77
2018-07-02T06:40:48.982Z,97531.75
2018-07-02T06:43:18.785Z,97530.95
2018-07-02T06:48:17.120Z,97536.95
2018-07-02T06:50:46.824Z,97532.45
2018-07-02T06:53:16.577Z,97543.23
2018-07-02T06:55:46.466Z,97539.41
2018-07-02T06:58:16.294Z,97540.30
2018-07-02T07:00:46.226Z,97548.17
2018-07-02T07:03:16.052Z,97548.62
2018-07-02T07:05:45.962Z,97552.19
2018-07-02T07:08:16.633Z,97549.56
2018-07-02T07:10:46.516Z,97548.44
2018-07-02T07:13:16.252Z,97541.42
2018-07-02T07:15:46.141Z,97544.66
2018-07-02T07:18:16.811Z,97546.47
2018-07-02T07:20:46.521Z,97546.80
2018-07-02T07:23:16.427Z,97550.21
2018-07-02T07:25:46.142Z,97547.39
2018-07-02T07:28:15.885Z,97541.53
2018-07-02T07:30:45.924Z,97533.35
2018-07-02T07:33:16.638Z,97538.03
2018-07-02T07:35:46.423Z,97537.78
2018-07-02T07:38:16.240Z,97538.24
2018-07-02T07:40:46.184Z,97538.92
2018-07-02T07:43:16.100Z,97541.77
2018-07-02T07:45:45.923Z,97538.80
2018-07-02T07:48:15.796Z,97545.30
2018-07-02T07:50:45.626Z,97543.97
2018-07-02T07:53:15.585Z,97540.35
2018-07-02T07:55:45.898Z,97547.84
2018-07-02T07:58:16.556Z,97539.05
2018-07-02T08:00:46.665Z,97545.89
2018-07-02T08:03:16.543Z,97544.86
2018-07-02T08:08:22.200Z,97547.45
2018-07-02T08:10:52.255Z,97549.25
2018-07-02T08:13:22.274Z,97546.23
2018-07-02T08:15:52.211Z,97549.21
2018-07-02T08:18:21.998Z,97549.43
2018-07-02T08:20:52.033Z,97550.53
2018-07-02T08:28:40.926Z,97545.69
2018-07-02T08:31:10.623Z,97538.50
2018-07-02T08:33:40.478Z,97546.63
2018-07-02T08:36:10.893Z,97541.88
2018-07-02T08:38:40.988Z,97537.78
2018-07-02T08:41:10.764Z,97529.69
2018-07-02T08:43:40.713Z,97524.19
2018-07-02T08:46:11.007Z,97526.55
2018-07-02T08:48:41.070Z,97532.39
2018-07-02T08:51:10.831Z,97528.20
2018-07-02T08:53:40.719Z,97523.07
2018-07-02T08:56:10.911Z,97517.13
2018-07-02T08:58:40.850Z,97516.11
2018-07-02T09:01:10.847Z,97522.30
2018-07-02T09:03:40.844Z,97507.81
2018-07-02T09:06:10.842Z,97505.70
2018-07-02T09:08:40.687Z,97507.30
2018-07-02T09:11:10.740Z,97510.02
2018-07-02T09:13:40.580Z,97512.92
2018-07-02T09:16:10.501Z,97501.11
2018-07-02T09:18:40.533Z,97505.41
2018-07-02T09:21:10.473Z,97508.59
2018-07-02T09:23:40.468Z,97503.48
2018-07-02T09:26:10.293Z,97498.97
2018-07-02T09:28:40.346Z,97494.17
2018-07-02T09:31:10.207Z,97495.21
2018-07-02T09:33:40.255Z,97487.16
2018-07-02T09:36:10.477Z,97489.06
2018-07-02T09:41:15.707Z,97485.81
2018-07-02T09:43:45.575Z,97477.76
2018-07-02T09:46:15.460Z,97480.45
2018-07-02T09:48:45.297Z,97484.73
2018-07-02T09:51:15.310Z,97488.52
2018-07-02T09:53:45.055Z,97483.87
2018-07-02T09:56:14.941Z,97469.09
2018-07-02T09:58:44.897Z,97474.66
2018-07-02T10:01:14.788Z,97474.55
2018-07-02T10:03:44.908Z,97472.98
2018-07-02T10:06:14.788Z,97478.16
2018-07-02T10:08:44.794Z,97477.13
2018-07-02T10:11:14.791Z,97472.50
2018-07-02T10:13:44.899Z,97471.70
2018-07-02T10:16:14.892Z,97472.70
2018-07-02T10:18:44.996Z,97469.23
2018-07-02T10:21:15.073Z,97473.23
2018-07-02T10:23:45.108Z,97469.14
2018-07-02T10:26:15.137Z,97472.88
2018-07-02T10:28:45.033Z,97465.31
2018-07-02T10:31:15.154Z,97466.47
2018-07-02T10:33:45.319Z,97464.77
2018-07-02T10:36:15.220Z,97460.02
2018-07-02T10:38:45.433Z,97458.72
2018-07-02T10:41:15.625Z,97448.66
2018-07-02T10:43:46.140Z,97441.05
2018-07-02T10:46:16.856Z,97440.19
2018-07-02T10:48:46.829Z,97447.09
2018-07-02T10:51:17.333Z,97439.02
2018-07-02T10:56:22.529Z,97436.65
2018-07-02T10:58:52.339Z,97431.41
2018-07-02T11:04:04.686Z,97422.91
2018-07-02T11:06:34.506Z,97424.55
2018-07-02T11:09:14.864Z,97425.77
2018-07-02T11:11:55.097Z,97412.27
2018-07-02T11:14:38.104Z,97419.23
2018-07-02T11:17:12.558Z,97417.23
2018-07-02T11:19:56.190Z,97417.73
2018-07-02T11:22:33.870Z,97411.52
2018-07-02T11:25:08.967Z,97414.46
2018-07-02T11:27:45.476Z,97405.00
2018-07-02T11:30:32.876Z,97403.46
2018-07-02T11:33:10.421Z,97397.09
2018-07-02T11:35:53.673Z,97391.31
2018-07-02T11:38:38.541Z,97398.02
2018-07-02T11:41:19.043Z,97385.09
2018-07-02T11:44:04.512Z,97387.00
2018-07-02T11:46:43.540Z,97386.91
2018-07-02T11:52:08.602Z,97388.34
2018-07-02T11:54:53.429Z,97384.02
2018-07-02T11:57:35.974Z,97378.66
2018-07-02T12:00:20.162Z,97380.11
2018-07-02T12:02:59.189Z,97379.19
2018-07-02T12:05:32.590Z,97377.11
2018-07-02T12:08:14.076Z,97378.01
2018-07-02T12:13:37.087Z,97377.91
2018-07-02T12:16:13.955Z,97377.38
2018-07-02T12:18:48.649Z,97380.03
2018-07-02T12:21:26.775Z,97374.82
2018-07-02T12:24:04.261Z,97370.13
2018-07-02T12:29:31.319Z,97367.62
2018-07-02T12:32:22.165Z,97354.53
2018-07-02T12:35:01.201Z,97358.09
2018-07-02T12:37:34.264Z,97361.46
2018-07-02T12:40:07.124Z,97355.19
2018-07-02T12:42:41.274Z,97356.52
2018-07-02T12:45:17.949Z,97346.89
2018-07-02T12:47:55.285Z,97346.58
2018-07-02T12:50:28.773Z,97343.91
2018-07-02T12:53:00.880Z,97347.19
2018-07-02T12:55:33.441Z,97334.49
2018-07-02T12:58:08.142Z,97332.81
2018-07-02T13:00:40.393Z,97346.43
2018-07-02T13:03:13.174Z,97343.91
2018-07-02T13:05:46.247Z,97345.84
2018-07-02T13:08:19.213Z,97346.81
2018-07-02T13:10:52.739Z,97342.34
2018-07-02T13:13:25.980Z,97343.17
2018-07-02T13:15:57.929Z,97336.66
2018-07-02T13:18:30.185Z,97331.31
2018-07-02T13:21:03.113Z,97333.92
2018-07-02T13:23:35.513Z,97327.69
2018-07-02T13:26:07.807Z,97323.88
2018-07-02T13:28:42.434Z,97325.56
2018-07-02T13:31:15.493Z,97328.50
2018-07-02T13:33:49.352Z,97317.66
2018-07-02T13:36:21.704Z,97320.31
2018-07-02T13:38:54.045Z,97319.86
2018-07-02T13:41:26.013Z,97317.78
2018-07-02T13:44:02.391Z,97320.74
2018-07-02T13:46:40.017Z,97315.33
2018-07-02T13:49:14.790Z,97306.55
2018-07-02T13:52:00.498Z,97303.25
2018-07-02T13:54:35.718Z,97303.58
2018-07-02T13:57:14.720Z,97302.41
2018-07-02T13:59:55.349Z,97303.04
2018-07-02T14:05:17.427Z,97301.14
2018-07-02T14:07:54.686Z,97287.06
2018-07-02T14:10:36.121Z,97278.16
2018-07-02T14:13:13.255Z,97285.55
2018-07-02T14:15:52.681Z,97286.23
2018-07-02T14:18:29.909Z,97279.34
2018-07-02T14:21:08.537Z,97274.13
2018-07-02T14:23:44.113Z,97273.53
2018-07-02T14:26:19.094Z,97269.81
2018-07-02T14:28:57.017Z,97266.77
2018-07-02T14:31:36.417Z,97261.83
2018-07-02T14:34:16.688Z,97253.10
2018-07-02T14:36:55.929Z,97261.09
2018-07-02T14:39:34.005Z,97254.94
2018-07-02T14:42:09.989Z,97258.38
2018-07-02T14:44:50.338Z,97251.38
2018-07-02T14:47:28.402Z,97253.95
2018-07-02T14:50:12.973Z,97255.57
2018-07-02T14:55:36.030Z,97251.13
2018-07-02T14:58:09.896Z,97256.20
2018-07-02T15:00:48.611Z,97260.19
2018-07-02T15:03:32.265Z,97258.53
2018-07-02T15:06:18.166Z,97255.39
2018-07-02T15:09:01.304Z,97260.70
2018-07-02T15:11:38.102Z,97256.05
2018-07-02T15:14:12.874Z,97256.94
2018-07-02T15:16:54.115Z,97253.73
2018-07-02T15:19:34.108Z,97252.02
2018-07-02T15:25:02.904Z,97244.84
2018-07-02T15:27:43.326Z,97242.25
2018-07-02T15:30:31.830Z,97233.77
2018-07-02T15:33:15.467Z,97235.50
2018-07-02T15:38:43.310Z,97231.20
2018-07-02T15:51:18.626Z,97237.56
2018-07-02T15:56:40.944Z,97226.95
2018-07-02T15:59:25.873Z,97227.47
2018-07-02T16:02:08.905Z,97226.65
2018-07-02T16:04:58.848Z,97228.16
2018-07-02T16:10:27.753Z,97226.36
2018-07-02T16:13:08.449Z,97228.83
2018-07-02T16:18:43.540Z,97229.25
2018-07-02T16:21:22.426Z,97230.39
2018-07-02T16:24:11.912Z,97239.11
2018-07-02T16:26:49.422Z,97233.53
2018-07-02T16:29:38.808Z,97237.03
2018-07-02T16:32:22.045Z,97233.02
2018-07-02T16:35:03.320Z,97239.52
2018-07-02T16:37:40.365Z,97235.90
2018-07-02T16:43:19.646Z,97229.66
2018-07-02T16:45:58.798Z,97234.32
2018-07-02T16:48:38.408Z,97239.77
2018-07-02T16:54:19.216Z,97235.81
2018-07-02T16:57:06.918Z,97233.05
2018-07-02T17:02:39.701Z,97237.79
2018-07-02T17:05:17.733Z,97235.89
2018-07-02T17:08:07.760Z,97240.23
2018-07-02T17:10:58.377Z,97236.58
2018-07-02T17:13:47.924Z,97232.45
2018-07-02T17:16:32.033Z,97248.83
2018-07-02T17:21:54.472Z,97238.38
2018-07-02T17:30:04.218Z,97240.23
2018-07-02T17:32:45.367Z,97244.99
2018-07-02T17:35:26.914Z,97248.22
2018-07-02T17:40:47.331Z,97254.80
2018-07-02T17:43:20.079Z,97254.70
2018-07-02T17:45:52.436Z,97257.98
2018-07-02T17:48:28.532Z,97261.40
2018-07-02T17:51:01.941Z,97263.65
2018-07-02T17:53:34.662Z,97268.77
2018-07-02T17:56:07.965Z,97275.97
2018-07-02T17:58:43.065Z,97287.59
2018-07-02T18:01:16.251Z,97285.84
2018-07-02T18:03:52.824Z,97283.11
2018-07-02T18:06:31.224Z,97291.75
2018-07-02T18:09:03.986Z,97292.45
2018-07-02T18:11:36.432Z,97304.05
2018-07-02T18:14:09.056Z,97302.27
2018-07-02T18:16:43.334Z,97299.18
2018-07-02T18:19:29.732Z,97300.81
2018-07-02T18:25:06.172Z,97298.19
2018-07-02T18:27:45.552Z,97301.47
2018-07-02T18:30:24.793Z,97305.61
2018-07-02T18:32:59.082Z,97313.75
2018-07-02T18:36:32.150Z,97320.31
2018-07-02T18:39:12.031Z,97315.81
2018-07-02T18:41:47.700Z,97313.70
2018-07-02T18:44:32.506Z,97325.23
2018-07-02T18:47:08.194Z,97312.41
2018-07-02T18:49:40.690Z,97313.51
2018-07-02T18:52:15.267Z,97318.63
2018-07-02T18:54:51.874Z,97323.76
2018-07-02T18:57:37.189Z,97328.08
2018-07-02T19:00:16.983Z,97323.77
2018-07-02T19:02:58.174Z,97329.38
2018-07-02T19:08:17.421Z,97336.28
2018-07-02T19:11:01.731Z,97342.20
2018-07-02T19:13:47.145Z,97352.39
2018-07-02T19:16:19.573Z,97355.87
2018-07-02T19:18:53.855Z,97354.44
2018-07-02T19:24:13.606Z,97365.30
2018-07-02T19:26:48.186Z,97374.84
2018-07-02T19:29:23.927Z,97373.35
2018-07-02T19:32:01.954Z,97377.16
2018-07-02T19:34:35.297Z,97384.42
2018-07-02T19:37:12.006Z,97394.15
2018-07-02T19:39:44.541Z,97393.93
2018-07-02T19:42:18.974Z,97397.72
2018-07-02T19:44:53.007Z,97404.98
2018-07-02T19:47:29.007Z,97407.40
2018-07-02T19:50:02.022Z,97410.05
2018-07-02T19:52:34.629Z,97409.01
2018-07-02T19:55:09.590Z,97413.07
2018-07-02T19:57:42.428Z,97418.95
2018-07-02T20:02:59.045Z,97411.70
2018-07-02T20:05:32.360Z,97419.75
2018-07-02T20:08:04.855Z,97429.69
2018-07-02T20:10:40.946Z,97426.70
2018-07-02T20:16:03.189Z,97425.11
2018-07-02T20:18:41.904Z,97419.75
2018-07-02T20:21:17.360Z,97423.78
2018-07-02T20:23:57.996Z,97425.70
2018-07-02T20:26:31.499Z,97430.23
2018-07-02T20:29:11.153Z,97436.16
2018-07-02T20:31:48.648Z,97433.97
2018-07-02T20:34:22.246Z,97438.30
2018-07-02T20:36:54.498Z,97443.13
2018-07-02T20:39:30.748Z,97448.78
2018-07-02T20:42:05.639Z,97444.75
2018-07-02T20:44:42.705Z,97455.49
2018-07-02T20:47:19.697Z,97449.32
2018-07-02T20:49:52.724Z,97450.91
2018-07-02T20:52:25.797Z,97450.39
2018-07-02T20:54:57.929Z,97451.19
2018-07-02T20:57:32.441Z,97447.95
2018-07-02T21:00:15.056Z,97447.41
2018-07-02T21:02:53.321Z,97448.78
2018-07-02T21:05:27.386Z,97446.34
2018-07-02T21:08:00.537Z,97451.69
2018-07-02T21:10:38.185Z,97445.00
2018-07-02T21:13:10.125Z,97458.08
2018-07-02T21:15:45.207Z,97452.47
2018-07-02T21:18:23.821Z,97453.89
2018-07-02T21:21:02.446Z,97462.20
2018-07-02T21:23:36.898Z,97457.91
2018-07-02T21:26:11.468Z,97459.22
2018-07-02T21:28:44.522Z,97454.38
2018-07-02T21:36:31.428Z,97452.23
2018-07-02T21:39:05.309Z,97456.81
2018-07-02T21:41:43.911Z,97454.39
2018-07-02T21:44:22.756Z,97457.38
2018-07-02T21:47:02.612Z,97461.39
2018-07-02T21:49:37.964Z,97460.31
2018-07-02T21:52:13.095Z,97460.05
2018-07-02T21:54:46.572Z,97465.15
2018-07-02T21:57:19.702Z,97467.03
2018-07-02T21:59:55.345Z,97464.08
2018-07-02T22:02:29.697Z,97464.33
2018-07-02T22:07:44.656Z,97465.15
2018-07-02T22:12:55.082Z,97471.58
2018-07-02T22:15:27.811Z,97471.86
2018-07-02T22:18:05.650Z,97474.80
2018-07-02T22:20:40.224Z,97474.53
2018-07-02T22:23:16.023Z,97473.73
2018-07-02T22:25:50.461Z,97478.02
2018-07-02T22:28:28.484Z,97481.73
2018-07-02T22:31:01.352Z,97482.28
2018-07-02T22:33:39.789Z,97478.81
2018-07-02T22:36:12.122Z,97487.11
2018-07-02T22:38:45.524Z,97487.38
2018-07-02T22:41:21.165Z,97493.02
2018-07-02T22:44:02.942Z,97492.73
2018-07-02T22:46:40.048Z,97491.93
2018-07-02T22:49:17.562Z,97491.64
2018-07-02T22:51:54.320Z,97493.80
2018-07-02T22:54:29.315Z,97487.92
2018-07-02T22:57:03.609Z,97494.88
2018-07-02T22:59:36.782Z,97494.05
2018-07-02T23:05:01.048Z,97495.86
2018-07-02T23:07:36.195Z,97496.39
2018-07-02T23:10:15.582Z,97500.19
2018-07-02T23:12:50.451Z,97497.77
2018-07-02T23:18:15.517Z,97503.13
2018-07-02T23:20:50.346Z,97502.89
2018-07-02T23:23:24.963Z,97499.89
2018-07-02T23:25:59.240Z,97502.86
2018-07-02T23:31:19.994Z,97501.48
2018-07-02T23:33:52.836Z,97493.63
2018-07-02T23:36:27.116Z,97495.27
2018-07-02T23:39:01.927Z,97497.69
2018-07-02T23:41:35.080Z,97493.97
2018-07-02T23:44:17.371Z,97493.98
2018-07-02T23:46:53.280Z,97484.33
2018-07-02T23:49:29.596Z,97490.00
2018-07-02T23:52:04.090Z,97493.48
2018-07-02T23:54:38.268Z,97487.56
2018-07-02T23:59:51.000Z,97487.03
